Time,TemperatureF,DewpointF,PressureIn,WindDirection,WindDirectionDegrees,WindSpeedMPH,WindSpeedGustMPH,Humidity,HourlyPrecipIn,Conditions,Clouds,dailyrainin,SoftwareType,DateUTC
2013-01-29 00:11:00,66.5,61.0,29.61,SW,235,0.0,4.0,81,0.00,,,0.00,weatherlink.com 1.10,2013-01-29 06:11:00,
2013-01-29 00:26:00,66.7,61.0,29.61,ESE,118,0.0,9.0,83,0.00,,,0.00,weatherlink.com 1.10,2013-01-29 06:26:00,
2013-01-29 00:41:00,66.4,61.0,29.60,WSW,252,2.0,8.0,82,0.00,,,0.00,weatherlink.com 1.10,2013-01-29 06:41:00,
2013-01-29 00:56:00,66.1,61.0,29.59,North,356,0.0,3.0,84,0.00,,,0.00,weatherlink.com 1.10,2013-01-29 06:56:00,
2013-01-29 01:11:00,66.5,62.0,29.59,East,101,2.0,3.0,85,0.00,,,0.00,weatherlink.com 1.10,2013-01-29 07:11:00,
2013-01-29 01:26:00,65.3,58.0,29.56,NNE,20,3.0,12.0,78,0.03,,,0.03,weatherlink.com 1.10,2013-01-29 07:26:00,
2013-01-29 01:41:00,63.2,60.0,29.57,ESE,109,1.0,3.0,89,0.03,,,0.03,weatherlink.com 1.10,2013-01-29 07:41:00,
2013-01-29 01:56:00,63.5,61.0,29.57,ESE,111,5.0,8.0,91,0.03,,,0.03,weatherlink.com 1.10,2013-01-29 07:56:00,
2013-01-29 02:11:00,63.8,59.0,29.57,East,85,2.0,4.0,85,0.03,,,0.03,weatherlink.com 1.10,2013-01-29 08:11:00,
2013-01-29 02:26:00,63.6,60.0,29.57,East,92,1.0,2.0,89,0.00,,,0.03,weatherlink.com 1.10,2013-01-29 08:26:00,
2013-01-29 02:41:00,64.5,61.0,29.57,East,96,2.0,11.0,88,0.00,,,0.03,weatherlink.com 1.10,2013-01-29 08:41:00,
2013-01-29 02:56:00,65.6,61.0,29.57,SE,142,0.0,4.0,86,0.00,,,0.03,weatherlink.com 1.10,2013-01-29 08:56:00,
2013-01-29 03:11:00,65.3,61.0,29.57,SE,131,1.0,4.0,86,0.00,,,0.03,weatherlink.com 1.10,2013-01-29 09:11:00,
2013-01-29 03:26:00,65.2,61.0,29.57,SSE,160,2.0,4.0,87,0.00,,,0.03,weatherlink.com 1.10,2013-01-29 09:26:00,
2013-01-29 03:42:00,66.2,62.0,29.57,North,11,3.0,6.0,85,0.00,,,0.03,weatherlink.com 1.10,2013-01-29 09:42:00,
2013-01-29 03:57:00,65.6,61.0,29.56,WSW,242,2.0,6.0,85,0.00,,,0.03,weatherlink.com 1.10,2013-01-29 09:57:00,
2013-01-29 04:12:00,65.1,60.0,29.56,East,96,5.0,5.0,84,0.00,,,0.03,weatherlink.com 1.10,2013-01-29 10:12:00,
2013-01-29 04:27:00,65.4,61.0,29.55,SSE,152,0.0,4.0,85,0.00,,,0.03,weatherlink.com 1.10,2013-01-29 10:27:00,
2013-01-29 04:57:00,65.0,60.0,29.56,ESE,120,2.0,8.0,85,0.00,,,0.03,weatherlink.com 1.10,2013-01-29 10:57:00,
2013-01-29 05:12:00,65.0,60.0,29.56,ESE,106,0.0,5.0,85,0.00,,,0.03,weatherlink.com 1.10,2013-01-29 11:12:00,
2013-01-29 05:27:00,64.1,60.0,29.56,ESE,120,0.0,3.0,86,0.00,,,0.03,weatherlink.com 1.10,2013-01-29 11:27:00,
2013-01-29 05:42:00,63.9,60.0,29.56,East,96,0.0,3.0,87,0.00,,,0.03,weatherlink.com 1.10,2013-01-29 11:42:00,
2013-01-29 05:57:00,63.3,59.0,29.55,ESE,117,0.0,3.0,87,0.00,,,0.03,weatherlink.com 1.10,2013-01-29 11:57:00,
2013-01-29 06:12:00,62.8,58.0,29.54,NNE,12,0.0,2.0,85,0.00,,,0.03,weatherlink.com 1.10,2013-01-29 12:12:00,
2013-01-29 06:27:00,61.5,58.0,29.55,ENE,72,1.0,1.0,88,0.00,,,0.03,weatherlink.com 1.10,2013-01-29 12:27:00,
2013-01-29 06:43:00,61.1,57.0,29.54,ENE,60,0.0,2.0,87,0.00,,,0.03,weatherlink.com 1.10,2013-01-29 12:43:00,
2013-01-29 06:57:00,61.2,58.0,29.54,ESE,105,0.0,1.0,89,0.00,,,0.03,weatherlink.com 1.10,2013-01-29 12:57:00,
2013-01-29 07:12:00,60.4,57.0,29.52,East,99,0.0,0.0,89,0.00,,,0.03,weatherlink.com 1.10,2013-01-29 13:12:00,
2013-01-29 07:27:00,60.4,58.0,29.52,SSE,165,0.0,1.0,91,0.00,,,0.03,weatherlink.com 1.10,2013-01-29 13:27:00,
2013-01-29 07:42:00,59.8,57.0,29.53,SSE,165,0.0,1.0,91,0.00,,,0.03,weatherlink.com 1.10,2013-01-29 13:42:00,
2013-01-29 07:57:00,59.9,57.0,29.54,ESE,118,0.0,1.0,90,0.00,,,0.03,weatherlink.com 1.10,2013-01-29 13:57:00,
2013-01-29 08:12:00,56.3,52.0,29.55,NW,305,6.0,16.0,84,0.00,,,0.03,weatherlink.com 1.10,2013-01-29 14:12:00,
2013-01-29 08:27:00,51.4,49.0,29.58,NW,305,4.0,10.0,90,0.06,,,0.09,weatherlink.com 1.10,2013-01-29 14:27:00,
2013-01-29 08:42:00,49.3,47.0,29.60,NW,316,0.0,6.0,91,0.10,,,0.13,weatherlink.com 1.10,2013-01-29 14:42:00,
2013-01-29 08:57:00,48.3,46.0,29.63,WNW,302,3.0,7.0,92,0.15,,,0.18,weatherlink.com 1.10,2013-01-29 14:57:00,
2013-01-29 09:12:00,47.2,45.0,29.63,WNW,290,3.0,6.0,92,0.20,,,0.24,weatherlink.com 1.10,2013-01-29 15:12:00,
2013-01-29 09:27:00,46.5,45.0,29.63,WNW,293,5.0,7.0,93,0.22,,,0.32,weatherlink.com 1.10,2013-01-29 15:27:00,
2013-01-29 09:42:00,45.8,44.0,29.62,WNW,288,5.0,9.0,93,0.28,,,0.41,weatherlink.com 1.10,2013-01-29 15:42:00,
2013-01-29 09:57:00,45.1,44.0,29.60,WNW,297,1.0,6.0,94,0.29,,,0.47,weatherlink.com 1.10,2013-01-29 15:57:00,
2013-01-29 10:12:00,45.0,43.0,29.59,WNW,295,0.0,2.0,94,0.28,,,0.52,weatherlink.com 1.10,2013-01-29 16:12:00,
2013-01-29 10:27:00,44.8,43.0,29.59,West,273,0.0,1.0,94,0.25,,,0.58,weatherlink.com 1.10,2013-01-29 16:27:00,
2013-01-29 10:42:00,44.9,44.0,29.61,ESE,118,0.0,1.0,95,0.26,,,0.67,weatherlink.com 1.10,2013-01-29 16:42:00,
2013-01-29 10:57:00,44.8,44.0,29.62,WNW,298,1.0,3.0,95,0.29,,,0.76,weatherlink.com 1.10,2013-01-29 16:57:00,
2013-01-29 11:13:00,45.1,44.0,29.57,WNW,290,0.0,0.0,95,0.33,,,0.85,weatherlink.com 1.10,2013-01-29 17:13:00,
2013-01-29 11:28:00,45.1,44.0,29.54,WNW,293,1.0,3.0,95,0.32,,,0.90,weatherlink.com 1.10,2013-01-29 17:28:00,
2013-01-29 11:43:00,44.9,44.0,29.54,WNW,298,0.0,1.0,95,0.24,,,0.91,weatherlink.com 1.10,2013-01-29 17:43:00,
2013-01-29 11:58:00,44.8,44.0,29.54,West,281,2.0,3.0,95,0.16,,,0.92,weatherlink.com 1.10,2013-01-29 17:58:00,
2013-01-29 12:13:00,44.5,43.0,29.55,WNW,296,3.0,4.0,95,0.09,,,0.94,weatherlink.com 1.10,2013-01-29 18:13:00,
2013-01-29 12:28:00,44.4,43.0,29.53,WNW,293,0.0,5.0,95,0.08,,,0.98,weatherlink.com 1.10,2013-01-29 18:28:00,
2013-01-29 12:43:00,44.4,43.0,29.50,SE,127,0.0,1.0,95,0.11,,,1.02,weatherlink.com 1.10,2013-01-29 18:43:00,
2013-01-29 12:58:00,44.4,43.0,29.47,WSW,249,0.0,3.0,95,0.11,,,1.03,weatherlink.com 1.10,2013-01-29 18:58:00,
2013-01-29 13:13:00,44.6,43.0,29.46,ESE,105,0.0,2.0,95,0.10,,,1.04,weatherlink.com 1.10,2013-01-29 19:13:00,
2013-01-29 13:28:00,44.9,44.0,29.49,West,281,1.0,9.0,95,0.06,,,1.04,weatherlink.com 1.10,2013-01-29 19:28:00,
2013-01-29 13:58:00,44.5,43.0,29.45,ESE,109,0.0,1.0,95,0.07,,,1.10,weatherlink.com 1.10,2013-01-29 19:58:00,
2013-01-29 14:13:00,44.4,43.0,29.45,WNW,300,2.0,5.0,95,0.07,,,1.11,weatherlink.com 1.10,2013-01-29 20:13:00,
2013-01-29 14:28:00,44.3,43.0,29.44,WNW,293,1.0,2.0,95,0.07,,,1.11,weatherlink.com 1.10,2013-01-29 20:28:00,
2013-01-29 14:43:00,43.5,42.0,29.46,WNW,294,1.0,5.0,95,0.05,,,1.11,weatherlink.com 1.10,2013-01-29 20:43:00,
2013-01-29 14:58:00,42.5,41.0,29.45,NW,308,3.0,7.0,95,0.01,,,1.11,weatherlink.com 1.10,2013-01-29 20:58:00,
2013-01-29 15:13:00,41.9,41.0,29.46,WNW,288,3.0,5.0,95,0.00,,,1.11,weatherlink.com 1.10,2013-01-29 21:13:00,
2013-01-29 15:28:00,41.3,40.0,29.49,WNW,284,6.0,9.0,94,0.00,,,1.11,weatherlink.com 1.10,2013-01-29 21:28:00,
2013-01-29 15:43:00,40.3,39.0,29.50,WNW,300,1.0,10.0,95,0.00,,,1.11,weatherlink.com 1.10,2013-01-29 21:43:00,
2013-01-29 15:58:00,39.4,38.0,29.52,WNW,298,5.0,11.0,95,0.01,,,1.12,weatherlink.com 1.10,2013-01-29 21:58:00,
2013-01-29 16:13:00,38.6,37.0,29.47,WNW,293,3.0,12.0,94,0.01,,,1.12,weatherlink.com 1.10,2013-01-29 22:13:00,
2013-01-29 16:28:00,38.4,37.0,29.50,WNW,300,5.0,9.0,95,0.02,,,1.13,weatherlink.com 1.10,2013-01-29 22:28:00,
2013-01-29 16:43:00,38.3,37.0,29.52,WNW,287,3.0,9.0,95,0.02,,,1.13,weatherlink.com 1.10,2013-01-29 22:43:00,
2013-01-29 16:58:00,38.3,37.0,29.51,WNW,283,1.0,8.0,95,0.01,,,1.13,weatherlink.com 1.10,2013-01-29 22:58:00,
2013-01-29 17:13:00,38.3,37.0,29.49,WNW,291,3.0,5.0,95,0.01,,,1.13,weatherlink.com 1.10,2013-01-29 23:13:00,
2013-01-29 17:28:00,38.0,37.0,29.55,WNW,295,4.0,6.0,95,0.00,,,1.13,weatherlink.com 1.10,2013-01-29 23:28:00,
2013-01-29 17:44:00,38.1,37.0,29.54,WNW,297,0.0,5.0,95,0.00,,,1.13,weatherlink.com 1.10,2013-01-29 23:44:00,
2013-01-29 17:58:00,37.8,37.0,29.53,WNW,295,1.0,5.0,95,0.01,,,1.14,weatherlink.com 1.10,2013-01-29 23:58:00,
2013-01-29 18:14:00,37.7,36.0,29.51,WNW,298,1.0,7.0,95,0.02,,,1.15,weatherlink.com 1.10,2013-01-30 00:14:00,
2013-01-29 18:29:00,37.3,36.0,29.53,NNW,333,4.0,11.0,95,0.02,,,1.15,weatherlink.com 1.10,2013-01-30 00:29:00,
2013-01-29 18:44:00,37.5,36.0,29.49,NW,304,1.0,5.0,95,0.02,,,1.15,weatherlink.com 1.10,2013-01-30 00:44:00,
2013-01-29 18:59:00,37.4,36.0,29.53,WNW,300,3.0,7.0,95,0.01,,,1.15,weatherlink.com 1.10,2013-01-30 00:59:00,
2013-01-29 19:14:00,37.5,36.0,29.54,WNW,289,1.0,3.0,95,0.04,,,1.19,weatherlink.com 1.10,2013-01-30 01:14:00,
2013-01-29 19:29:00,37.5,36.0,29.54,WNW,291,2.0,4.0,95,0.08,,,1.23,weatherlink.com 1.10,2013-01-30 01:29:00,
2013-01-29 19:44:00,37.6,36.0,29.54,SW,232,2.0,3.0,95,0.10,,,1.25,weatherlink.com 1.10,2013-01-30 01:44:00,
2013-01-29 19:59:00,37.6,36.0,29.55,WNW,297,0.0,4.0,95,0.11,,,1.26,weatherlink.com 1.10,2013-01-30 01:59:00,
2013-01-29 20:14:00,37.6,36.0,29.53,WNW,292,0.0,2.0,95,0.09,,,1.28,weatherlink.com 1.10,2013-01-30 02:14:00,
2013-01-29 20:29:00,37.6,36.0,29.53,WNW,290,4.0,7.0,95,0.05,,,1.28,weatherlink.com 1.10,2013-01-30 02:29:00,
2013-01-29 20:44:00,37.5,36.0,29.54,WNW,298,4.0,6.0,95,0.03,,,1.28,weatherlink.com 1.10,2013-01-30 02:44:00,
2013-01-29 20:59:00,37.3,36.0,29.51,WSW,252,4.0,5.0,95,0.01,,,1.28,weatherlink.com 1.10,2013-01-30 02:59:00,
2013-01-29 21:14:00,37.4,36.0,29.52,NW,315,1.0,4.0,95,0.01,,,1.29,weatherlink.com 1.10,2013-01-30 03:14:00,
2013-01-29 21:29:00,37.3,36.0,29.51,WNW,295,1.0,6.0,95,0.03,,,1.31,weatherlink.com 1.10,2013-01-30 03:29:00,
2013-01-29 21:44:00,37.3,36.0,29.51,WNW,291,2.0,3.0,95,0.07,,,1.35,weatherlink.com 1.10,2013-01-30 03:44:00,
2013-01-29 21:59:00,37.2,36.0,29.53,NNW,330,0.0,4.0,95,0.10,,,1.38,weatherlink.com 1.10,2013-01-30 03:59:00,
2013-01-29 22:14:00,37.2,36.0,29.52,WNW,294,0.0,2.0,95,0.14,,,1.43,weatherlink.com 1.10,2013-01-30 04:14:00,
2013-01-29 22:29:00,37.1,36.0,29.51,ENE,75,0.0,5.0,95,0.16,,,1.47,weatherlink.com 1.10,2013-01-30 04:29:00,
2013-01-29 22:44:00,36.9,36.0,29.49,WNW,300,0.0,3.0,95,0.14,,,1.49,weatherlink.com 1.10,2013-01-30 04:44:00,
2013-01-29 22:59:00,36.8,36.0,29.48,WNW,291,3.0,3.0,95,0.11,,,1.49,weatherlink.com 1.10,2013-01-30 04:59:00,
2013-01-29 23:14:00,36.3,35.0,29.45,West,281,4.0,7.0,95,0.06,,,1.49,weatherlink.com 1.10,2013-01-30 05:14:00,
2013-01-29 23:29:00,36.0,35.0,29.44,WSW,255,0.0,7.0,95,0.02,,,1.49,weatherlink.com 1.10,2013-01-30 05:29:00,
2013-01-29 23:44:00,36.0,35.0,29.49,NE,42,0.0,10.0,95,0.00,,,1.49,weatherlink.com 1.10,2013-01-30 05:44:00,
2013-01-29 23:59:00,36.0,35.0,29.51,West,277,3.0,7.0,94,0.00,,,1.49,weatherlink.com 1.10,2013-01-30 05:59:00,